Time;durP1;ratioP1;P1;durP2;ratioP2;P2;SDS_P1;SDS_P2;PMS_P1;PMS_P2;Temp;Humidity;BMP_temperature;BMP_pressure;BME280_temperature;BME280_humidity;BME280_pressure;Samples;Min_cycle;Max_cycle;Signal;HPM_P1;HPM_P2
2023/12/30 00:04:15;;;;;;;2.75;1.05;;;;;;;9.79;98.71;99779.63;10324307;28;20053;-63
2023/12/30 00:09:17;;;;;;;1.50;0.70;;;;;;;9.76;98.69;99774.56;10327773;28;22641;-64
2023/12/30 00:14:21;;;;;;;2.22;0.80;;;;;;;9.88;98.40;99773.50;10328624;28;20049;-64
2023/12/30 00:19:22;;;;;;;5.22;1.48;;;;;;;9.82;98.25;99767.88;10329255;28;20042;-64
2023/12/30 00:24:24;;;;;;;3.42;1.23;;;;;;;9.77;98.16;99773.56;10364345;28;20065;-64
2023/12/30 00:29:26;;;;;;;6.20;1.17;;;;;;;9.70;98.10;99770.59;10334689;28;20109;-64
2023/12/30 00:34:32;;;;;;;3.08;0.90;;;;;;;9.62;97.27;99761.59;10313744;28;20608;-64
2023/12/30 00:39:33;;;;;;;3.28;1.23;;;;;;;9.66;97.16;99779.78;10349486;28;20093;-64
2023/12/30 00:44:35;;;;;;;3.08;1.35;;;;;;;9.66;96.11;99778.97;10325473;28;20053;-64
2023/12/30 00:49:37;;;;;;;4.50;1.08;;;;;;;9.70;95.17;99775.91;10328694;28;20058;-64
2023/12/30 00:54:39;;;;;;;3.03;1.17;;;;;;;9.70;94.15;99786.53;10345425;28;20095;-64
2023/12/30 00:59:51;;;;;;;1.45;0.70;;;;;;;9.68;93.68;99791.16;10340026;28;20052;-65
2023/12/30 01:04:52;;;;;;;2.90;1.00;;;;;;;9.63;93.43;99784.53;10324887;28;20048;-63
2023/12/30 01:09:54;;;;;;;4.60;1.25;;;;;;;9.60;93.53;99790.13;10323827;28;20545;-63
2023/12/30 01:14:55;;;;;;;4.72;1.25;;;;;;;9.51;93.31;99773.94;10323466;28;20057;-63
2023/12/30 01:19:57;;;;;;;2.60;1.00;;;;;;;9.60;93.22;99793.59;10323631;28;20422;-64
2023/12/30 01:24:58;;;;;;;3.22;1.52;;;;;;;9.61;92.54;99802.41;10362926;28;20056;-64
2023/12/30 01:30:00;;;;;;;2.00;0.77;;;;;;;9.62;92.24;99810.25;10330427;28;20052;-63
2023/12/30 01:35:01;;;;;;;2.50;0.65;;;;;;;9.62;91.93;99814.72;10326412;28;20100;-63
2023/12/30 01:40:03;;;;;;;1.95;0.63;;;;;;;9.65;91.28;99835.72;10322093;28;20771;-65
2023/12/30 01:45:05;;;;;;;3.28;1.08;;;;;;;9.64;91.18;99823.44;10348532;28;20053;-64
2023/12/30 01:50:09;;;;;;;3.65;1.00;;;;;;;9.70;90.69;99828.25;10309229;28;20061;-64
2023/12/30 01:55:11;;;;;;;4.18;0.85;;;;;;;9.66;90.32;99834.78;10327770;28;20107;-64
2023/12/30 02:00:19;;;;;;;2.40;0.52;;;;;;;9.69;90.20;99832.69;10323474;28;20093;-64
2023/12/30 02:05:22;;;;;;;1.70;0.65;;;;;;;9.68;89.11;99848.75;10348399;28;20049;-64
2023/12/30 02:10:24;;;;;;;3.00;0.90;;;;;;;9.68;89.34;99862.06;10346176;28;20049;-64
2023/12/30 02:15:25;;;;;;;3.03;0.55;;;;;;;9.64;88.57;99861.47;10330607;28;20153;-65
2023/12/30 02:20:27;;;;;;;4.40;0.80;;;;;;;9.61;88.89;99859.06;10324647;28;20124;-63
2023/12/30 02:25:30;;;;;;;2.38;0.90;;;;;;;9.55;89.04;99844.47;10360919;28;20113;-64
2023/12/30 02:30:32;;;;;;;2.35;0.52;;;;;;;9.51;88.75;99835.06;10323239;28;20111;-65
2023/12/30 02:35:33;;;;;;;3.65;0.60;;;;;;;9.54;88.98;99842.78;10325698;28;20789;-64
2023/12/30 02:40:35;;;;;;;3.05;0.65;;;;;;;9.51;88.77;99845.69;10333549;28;20446;-65
2023/12/30 02:45:36;;;;;;;2.28;0.50;;;;;;;9.57;88.40;99843.50;10330049;28;20041;-64
2023/12/30 02:50:38;;;;;;;2.45;0.55;;;;;;;9.51;87.91;99845.69;10346926;28;20054;-65
2023/12/30 02:55:39;;;;;;;4.80;1.20;;;;;;;9.49;87.60;99852.97;10322944;28;20049;-64
2023/12/30 03:00:43;;;;;;;1.20;0.50;;;;;;;9.43;87.58;99847.28;10323811;28;20064;-64
2023/12/30 03:05:44;;;;;;;2.90;0.80;;;;;;;9.47;88.11;99860.22;10323494;28;20233;-63
2023/12/30 03:10:47;;;;;;;1.80;0.68;;;;;;;9.50;87.95;99865.28;10320562;28;20054;-64
2023/12/30 03:15:48;;;;;;;2.40;0.95;;;;;;;9.47;87.75;99870.84;10323133;28;20063;-63
2023/12/30 03:20:52;;;;;;;2.05;0.60;;;;;;;9.43;87.93;99855.25;10331191;28;20053;-64
2023/12/30 03:25:53;;;;;;;3.85;0.70;;;;;;;9.61;87.82;99876.81;10323434;28;20042;-63
2023/12/30 03:30:55;;;;;;;2.10;0.55;;;;;;;9.50;87.64;99867.94;10353559;28;20057;-64
2023/12/30 03:35:56;;;;;;;1.00;0.40;;;;;;;9.53;87.78;99890.72;10335352;28;20144;-63
2023/12/30 03:40:58;;;;;;;1.48;0.52;;;;;;;9.50;87.87;99891.84;10362716;28;20061;-63
2023/12/30 03:46:00;;;;;;;1.55;0.45;;;;;;;9.38;88.48;99874.22;10331428;28;20054;-64
2023/12/30 03:51:01;;;;;;;1.13;0.35;;;;;;;9.44;89.35;99894.97;10333573;28;20050;-64
2023/12/30 03:56:03;;;;;;;2.42;0.40;;;;;;;9.40;89.29;99896.22;10328829;28;20936;-64
2023/12/30 04:01:05;;;;;;;2.28;0.77;;;;;;;9.34;89.93;99886.09;10331267;28;20056;-65
2023/12/30 04:06:06;;;;;;;1.52;0.60;;;;;;;9.44;90.15;99902.94;10330685;28;20060;-63
2023/12/30 04:11:08;;;;;;;3.20;0.75;;;;;;;9.42;89.84;99894.28;10372522;28;20129;-64
2023/12/30 04:16:10;;;;;;;2.63;0.47;;;;;;;9.55;89.85;99894.97;10330746;28;20058;-64
2023/12/30 04:21:11;;;;;;;1.67;0.65;;;;;;;9.61;89.37;99895.41;10348843;28;20254;-62
2023/12/30 04:26:13;;;;;;;2.80;0.75;;;;;;;9.62;89.45;99905.09;10328992;28;20959;-63
2023/12/30 04:31:14;;;;;;;1.42;0.50;;;;;;;9.63;89.45;99910.28;10327839;28;20136;-64
2023/12/30 04:36:16;;;;;;;3.17;0.70;;;;;;;9.53;89.37;99904.88;10323246;28;20670;-64
2023/12/30 04:41:17;;;;;;;2.17;0.50;;;;;;;9.62;89.57;99910.41;10323536;28;20741;-64
2023/12/30 04:46:19;;;;;;;3.28;0.60;;;;;;;9.58;89.30;99907.16;10327294;28;20052;-63
2023/12/30 04:51:21;;;;;;;3.67;1.20;;;;;;;9.56;89.91;99919.72;10338270;28;20412;-64
2023/12/30 04:56:23;;;;;;;5.53;1.50;;;;;;;9.58;90.41;99924.91;10329655;28;20053;-63
2023/12/30 05:01:28;;;;;;;2.97;0.70;;;;;;;9.60;90.76;99928.28;10327144;28;20050;-64
2023/12/30 05:06:30;;;;;;;2.93;0.90;;;;;;;9.65;90.52;99928.75;10325342;28;20109;-64
2023/12/30 05:11:32;;;;;;;3.78;0.98;;;;;;;9.64;90.31;99941.19;10325240;28;20053;-63
2023/12/30 05:16:42;;;;;;;2.70;0.82;;;;;;;9.64;90.16;99943.84;10325509;28;20144;-64
2023/12/30 05:21:43;;;;;;;2.58;0.55;;;;;;;9.61;89.93;99951.22;10324309;28;20492;-63
2023/12/30 05:26:45;;;;;;;1.20;0.70;;;;;;;9.54;90.35;99941.09;10323027;28;20046;-64
2023/12/30 05:31:49;;;;;;;2.80;0.50;;;;;;;9.55;89.83;99958.72;10337348;28;20758;-64
2023/12/30 05:36:50;;;;;;;3.90;0.80;;;;;;;9.60;90.13;99954.88;10346141;28;20744;-63
2023/12/30 05:41:53;;;;;;;4.53;0.93;;;;;;;9.65;89.83;99963.28;10323482;28;20057;-64
2023/12/30 05:46:54;;;;;;;1.50;0.57;;;;;;;9.72;89.48;99964.50;10325588;28;20155;-65
2023/12/30 05:51:57;;;;;;;2.25;0.73;;;;;;;9.67;89.65;99966.69;10327566;28;20069;-63
2023/12/30 05:57:00;;;;;;;4.38;1.42;;;;;;;9.69;90.01;99975.38;10339687;28;20761;-63
2023/12/30 06:02:02;;;;;;;2.78;0.95;;;;;;;9.73;90.01;99992.78;10322202;28;20076;-63
2023/12/30 06:07:04;;;;;;;3.95;1.25;;;;;;;9.77;90.67;99994.19;10328306;28;20784;-63
2023/12/30 06:12:08;;;;;;;9.93;0.80;;;;;;;9.55;90.43;99969.38;10327294;28;20050;-63
2023/12/30 06:17:10;;;;;;;5.68;1.08;;;;;;;9.78;90.50;100005.69;10346917;28;20692;-63
2023/12/30 06:22:12;;;;;;;4.82;1.30;;;;;;;9.83;91.05;100003.50;10342817;28;20049;-64
2023/12/30 06:27:13;;;;;;;3.30;1.02;;;;;;;9.84;91.27;100016.66;10325544;28;20080;-65
2023/12/30 06:32:15;;;;;;;3.17;0.95;;;;;;;9.69;91.97;99988.66;10341407;28;20061;-63
2023/12/30 06:37:17;;;;;;;3.15;0.88;;;;;;;9.87;91.96;100011.09;10321589;28;20050;-63
2023/12/30 06:42:18;;;;;;;5.22;0.90;;;;;;;9.81;92.31;100011.59;10325724;28;20064;-63
2023/12/30 06:47:19;;;;;;;6.70;1.70;;;;;;;9.82;92.87;100025.75;10315460;28;20054;-64
2023/12/30 06:52:23;;;;;;;4.30;1.30;;;;;;;9.86;93.47;100040.44;10325787;28;20054;-62
2023/12/30 06:57:25;;;;;;;3.80;0.70;;;;;;;9.85;93.85;100039.63;10324759;28;20618;-64
2023/12/30 07:02:26;;;;;;;3.80;1.20;;;;;;;9.85;94.22;100039.63;10323567;28;20104;-64
2023/12/30 07:07:29;;;;;;;2.28;1.00;;;;;;;9.83;94.14;100040.69;10326228;28;20418;-63
2023/12/30 07:12:30;;;;;;;6.35;1.50;;;;;;;9.81;93.41;100042.66;10318456;28;20491;-64
2023/12/30 07:17:32;;;;;;;3.67;1.23;;;;;;;9.74;93.02;100058.22;10318745;28;20053;-63
2023/12/30 07:22:33;;;;;;;5.22;1.73;;;;;;;9.64;93.55;100052.00;10332056;28;20054;-63
2023/12/30 07:27:38;;;;;;;4.00;1.33;;;;;;;9.66;93.40;100066.00;10358745;28;20129;-62
2023/12/30 07:32:39;;;;;;;3.05;1.25;;;;;;;9.69;93.41;100065.75;10333189;28;20702;-64
2023/12/30 07:37:41;;;;;;;4.90;1.70;;;;;;;9.71;92.31;100063.78;10319589;28;20065;-63
2023/12/30 07:43:08;;;;;;;4.25;1.15;;;;;;;9.57;91.31;100040.16;10314114;28;20042;-63
2023/12/30 07:48:09;;;;;;;3.55;0.75;;;;;;;9.76;89.63;100066.94;10320549;28;20042;-64
2023/12/30 07:53:11;;;;;;;4.20;1.35;;;;;;;9.80;88.69;100071.03;10321400;28;20058;-64
2023/12/30 07:58:13;;;;;;;5.07;1.48;;;;;;;9.85;87.28;100082.16;10321106;28;20058;-63
2023/12/30 08:03:15;;;;;;;4.20;1.55;;;;;;;9.89;87.12;100083.59;10338310;28;20136;-65
2023/12/30 08:08:17;;;;;;;4.00;1.00;;;;;;;9.91;85.52;100086.97;10329209;28;20504;-65
2023/12/30 08:13:19;;;;;;;3.83;0.80;;;;;;;9.94;84.96;100083.22;10344558;28;20596;-64
2023/12/30 08:18:22;;;;;;;3.88;0.70;;;;;;;9.97;84.95;100074.16;10331324;28;20057;-64
2023/12/30 08:23:24;;;;;;;3.42;0.93;;;;;;;9.96;84.70;100075.13;10325664;28;20495;-65
2023/12/30 08:28:26;;;;;;;5.85;0.80;;;;;;;9.91;85.53;100076.34;10339157;28;20372;-64
2023/12/30 08:33:28;;;;;;;3.10;0.68;;;;;;;9.90;86.45;100090.59;10332112;28;20060;-64
2023/12/30 08:38:31;;;;;;;6.13;0.70;;;;;;;9.96;86.49;100083.09;10352011;28;20068;-63
2023/12/30 08:43:33;;;;;;;2.83;0.68;;;;;;;10.02;86.86;100095.91;10327935;28;20839;-62
2023/12/30 08:48:35;;;;;;;6.00;1.20;;;;;;;10.03;86.96;100085.16;10347314;28;20079;-65
2023/12/30 08:53:37;;;;;;;3.20;1.20;;;;;;;10.07;87.54;100086.59;10309481;28;20054;-65
2023/12/30 08:58:39;;;;;;;6.55;1.95;;;;;;;10.03;87.94;100085.16;10350522;28;20595;-64
2023/12/30 09:03:40;;;;;;;4.18;1.30;;;;;;;9.98;89.07;100081.16;10329055;28;20074;-64
2023/12/30 09:08:42;;;;;;;2.97;1.25;;;;;;;10.04;89.44;100096.63;10328154;28;20417;-64
2023/12/30 09:13:43;;;;;;;3.75;1.02;;;;;;;10.08;89.17;100090.09;10327510;28;20115;-64
2023/12/30 09:18:45;;;;;;;4.22;1.25;;;;;;;10.04;89.33;100096.63;10358343;28;20132;-64
2023/12/30 09:23:47;;;;;;;5.63;1.70;;;;;;;10.17;89.57;100112.44;10323549;28;20053;-63
2023/12/30 09:28:49;;;;;;;3.03;1.30;;;;;;;10.10;89.11;100109.41;10326875;28;20105;-65
2023/12/30 09:34:14;;;;;;;3.80;1.65;;;;;;;10.19;89.16;100142.41;10324601;28;20599;-64
2023/12/30 09:39:26;;;;;;;3.92;1.90;;;;;;;10.30;89.04;100144.19;10322988;28;20061;-64
2023/12/30 09:44:28;;;;;;;9.18;2.67;;;;;;;10.35;88.65;100155.38;10351447;28;20064;-64
2023/12/30 09:49:34;;;;;;;7.78;1.63;;;;;;;10.51;87.77;100155.81;10316949;28;20518;-63
2023/12/30 09:54:38;;;;;;;5.85;1.40;;;;;;;10.61;87.54;100162.06;10325290;28;20050;-64
2023/12/30 09:59:51;;;;;;;5.40;1.67;;;;;;;10.69;86.67;100168.56;10345782;28;20176;-64
2023/12/30 10:04:53;;;;;;;4.40;1.80;;;;;;;10.74;85.99;100171.69;10327344;28;20065;-63
2023/12/30 10:09:55;;;;;;;5.75;1.92;;;;;;;10.77;85.67;100164.28;10327499;28;20246;-64
2023/12/30 10:14:57;;;;;;;5.35;1.80;;;;;;;10.85;85.00;100165.47;10327066;28;20054;-65
2023/12/30 10:19:58;;;;;;;3.55;1.60;;;;;;;10.95;84.40;100167.25;10326614;28;21465;-64
2023/12/30 10:25:01;;;;;;;3.97;2.17;;;;;;;11.13;84.10;100164.03;10357523;28;20050;-64
2023/12/30 10:30:04;;;;;;;4.50;1.90;;;;;;;11.13;82.29;100148.03;10324741;28;20053;-64
2023/12/30 10:35:06;;;;;;;5.65;1.70;;;;;;;11.25;82.23;100154.97;10328515;28;20046;-65
2023/12/30 10:40:09;;;;;;;4.65;1.38;;;;;;;11.26;81.22;100150.47;10326920;28;20080;-63
2023/12/30 10:45:11;;;;;;;4.88;1.55;;;;;;;11.29;81.40;100147.59;10347452;28;20052;-64
2023/12/30 10:50:13;;;;;;;6.95;2.10;;;;;;;11.20;81.21;100149.22;10359736;28;20158;-64
2023/12/30 10:55:19;;;;;;;4.63;2.58;;;;;;;11.25;80.08;100139.00;10325113;28;20368;-65
2023/12/30 11:00:25;;;;;;;4.93;2.03;;;;;;;11.21;80.24;100142.06;10323868;28;20052;-64
2023/12/30 11:05:32;;;;;;;7.57;2.22;;;;;;;11.14;80.16;100131.91;10322927;28;20152;-64
2023/12/30 11:10:33;;;;;;;4.28;2.05;;;;;;;11.29;80.13;100135.09;10340677;28;20708;-65
2023/12/30 11:15:39;;;;;;;8.05;1.67;;;;;;;11.66;78.32;100131.06;10315349;28;20707;-64
2023/12/30 11:20:48;;;;;;;5.10;1.60;;;;;;;12.08;76.05;100130.97;10319598;28;20054;-64
2023/12/30 11:25:51;;;;;;;3.95;1.67;;;;;;;12.15;75.05;100117.94;10316853;28;20052;-64
2023/12/30 11:31:00;;;;;;;7.35;2.08;;;;;;;12.70;72.37;100112.94;10324455;28;20050;-65
2023/12/30 11:36:05;;;;;;;5.13;1.42;;;;;;;13.34;70.50;100110.63;10337209;28;20656;-65
2023/12/30 11:41:06;;;;;;;3.97;1.48;;;;;;;13.21;67.87;100115.41;10341346;28;20065;-64
2023/12/30 11:46:08;;;;;;;4.85;1.23;;;;;;;12.73;70.38;100095.81;10321013;28;20054;-65
2023/12/30 11:51:38;;;;;;;3.85;1.40;;;;;;;12.58;70.43;100100.72;10320255;28;20508;-64
2023/12/30 11:56:40;;;;;;;3.97;0.98;;;;;;;13.05;68.83;100090.13;10314644;28;20069;-63
2023/12/30 12:01:43;;;;;;;9.05;2.63;;;;;;;13.60;66.98;100099.28;10355029;28;20139;-64
2023/12/30 12:06:49;;;;;;;9.35;6.80;;;;;;;14.19;63.28;100074.91;10330334;28;20056;-64
2023/12/30 12:11:50;;;;;;;5.88;2.30;;;;;;;15.11;59.81;100078.22;10327455;28;20389;-64
2023/12/30 12:16:52;;;;;;;7.35;1.30;;;;;;;14.49;61.49;100063.81;10349994;28;20046;-65
2023/12/30 12:21:58;;;;;;;5.50;1.25;;;;;;;13.30;64.27;100070.94;10365245;28;20053;-64
2023/12/30 12:27:00;;;;;;;8.00;1.85;;;;;;;12.94;66.37;100079.63;10332259;28;20094;-66
2023/12/30 12:32:04;;;;;;;4.43;1.60;;;;;;;12.94;67.38;100076.94;10337388;28;20137;-65
2023/12/30 12:37:05;;;;;;;3.83;1.27;;;;;;;12.67;67.63;100083.84;10328277;28;20191;-62
2023/12/30 12:42:07;;;;;;;4.53;1.88;;;;;;;12.60;67.52;100080.06;10348331;28;20767;-63
2023/12/30 12:47:23;;;;;;;5.72;1.38;;;;;;;12.60;67.59;100073.88;10325670;28;20052;-65
2023/12/30 12:52:48;;;;;;;5.45;1.30;;;;;;;12.81;67.96;100071.88;10314130;28;20057;-65
2023/12/30 12:57:50;;;;;;;5.78;2.30;;;;;;;13.46;64.85;100043.63;10325747;28;20613;-64
2023/12/30 13:02:52;;;;;;;6.03;1.20;;;;;;;14.09;61.79;100041.00;10332866;28;20562;-64
2023/12/30 13:07:54;;;;;;;5.22;1.13;;;;;;;13.29;63.05;100047.88;10321501;28;20468;-64
2023/12/30 13:12:56;;;;;;;4.65;1.42;;;;;;;13.11;64.39;100039.78;10320149;28;20497;-64
2023/12/30 13:17:59;;;;;;;6.80;1.45;;;;;;;12.95;64.71;100035.84;10321725;28;20505;-64
2023/12/30 13:23:05;;;;;;;3.55;0.98;;;;;;;12.94;64.96;100028.84;10327969;28;20050;-65
2023/12/30 13:28:06;;;;;;;3.60;1.17;;;;;;;13.87;61.30;100020.03;10325036;28;20042;-64
2023/12/30 13:33:10;;;;;;;4.50;2.53;;;;;;;14.43;59.17;100028.78;10321117;28;20722;-64
2023/12/30 13:38:13;;;;;;;;;;;;;;;14.73;58.50;100030.22;10324993;28;20448;-64
2023/12/30 13:43:16;;;;;;;3.65;1.58;;;;;;;14.89;57.63;100024.13;10323935;28;20482;-63
2023/12/30 13:49:10;;;;;;;5.53;2.00;;;;;;;14.77;58.96;100034.28;10349229;28;20078;-64
2023/12/30 13:53:59;;;;;;;5.68;1.98;;;;;;;14.54;59.50;100031.22;10333694;28;20052;-65
2023/12/30 13:59:07;;;;;;;3.17;1.42;;;;;;;13.67;62.33;100024.66;10339541;28;20135;-66
2023/12/30 14:04:11;;;;;;;5.53;4.28;;;;;;;13.26;64.02;100016.94;10323354;28;20060;-66
2023/12/30 14:14:42;;;;;;;33.92;21.73;;;;;;;12.79;65.93;100023.13;10345046;28;20093;-66
2023/12/30 14:19:44;;;;;;;7.00;2.05;;;;;;;12.58;66.86;100017.09;10321072;28;20054;-66
2023/12/30 14:24:46;;;;;;;5.70;1.92;;;;;;;12.55;67.88;100013.72;10319777;28;20100;-64
2023/12/30 14:29:51;;;;;;;5.07;1.75;;;;;;;12.52;67.41;100015.81;10328944;28;20049;-64
2023/12/30 14:34:52;;;;;;;15.13;9.23;;;;;;;12.32;67.84;100018.50;10339082;28;20442;-63
2023/12/30 14:39:55;;;;;;;19.98;13.18;;;;;;;12.20;68.90;100008.97;10330813;28;20065;-62
2023/12/30 14:44:56;;;;;;;20.67;15.52;;;;;;;12.17;68.99;100011.91;10347292;28;20057;-62
2023/12/30 14:49:58;;;;;;;14.43;6.22;;;;;;;12.13;69.02;100018.50;10354283;28;20050;-64
2023/12/30 14:55:02;;;;;;;25.08;17.25;;;;;;;12.19;69.79;100020.63;10334563;28;20069;-67
2023/12/30 15:00:13;;;;;;;6.20;2.05;;;;;;;12.07;68.91;100024.38;10322290;28;20265;-60
2023/12/30 15:05:21;;;;;;;5.07;1.80;;;;;;;11.97;68.98;100017.22;10342516;28;20397;-63
2023/12/30 15:10:23;;;;;;;5.85;2.15;;;;;;;11.79;69.84;100010.84;10326314;28;20069;-62
2023/12/30 15:15:25;;;;;;;13.35;9.23;;;;;;;11.74;70.52;100021.06;10341201;28;20054;-63
2023/12/30 15:20:26;;;;;;;4.50;1.70;;;;;;;11.54;70.77;99980.19;10322722;28;20209;-62
2023/12/30 15:25:30;;;;;;;5.95;3.90;;;;;;;11.65;70.97;100020.94;10316946;28;20141;-63
2023/12/30 15:30:32;;;;;;;5.15;3.28;;;;;;;11.57;71.75;100018.09;10334581;28;20125;-62
2023/12/30 15:35:34;;;;;;;5.03;1.92;;;;;;;11.55;71.53;100014.72;10324713;28;20058;-60
2023/12/30 15:40:40;;;;;;;4.20;1.67;;;;;;;11.48;72.16;100010.91;10321041;28;20058;-62
2023/12/30 15:45:41;;;;;;;4.65;2.05;;;;;;;11.44;72.93;100002.34;10348231;28;20068;-63
2023/12/30 15:50:43;;;;;;;6.35;2.42;;;;;;;11.40;72.44;100013.41;10313875;28;20054;-62
2023/12/30 15:55:50;;;;;;;;;;;;;;;11.35;72.31;100002.28;10324601;28;20052;-62
2023/12/30 16:00:52;;;;;;;3.22;1.70;;;;;;;11.26;72.64;100002.13;10350156;28;19936;-61
2023/12/30 16:05:56;;;;;;;5.20;1.63;;;;;;;11.22;72.43;99998.03;10341876;28;20640;-62
2023/12/30 16:10:58;;;;;;;4.40;2.40;;;;;;;11.15;72.58;99988.91;10316529;28;20486;-62
2023/12/30 16:16:00;;;;;;;4.47;1.92;;;;;;;11.11;72.29;99990.16;10324562;28;21245;-62
2023/12/30 16:21:04;;;;;;;10.25;2.38;;;;;;;11.07;72.00;99989.56;10321870;28;20058;-61
2023/12/30 16:26:07;;;;;;;6.03;2.70;;;;;;;11.06;71.62;99987.03;10319562;28;20061;-63
2023/12/30 16:31:10;;;;;;;4.65;2.72;;;;;;;11.06;72.24;99981.72;10306501;28;20072;-63
2023/12/30 16:36:11;;;;;;;4.53;2.97;;;;;;;11.03;71.23;99974.00;10319855;28;20121;-63
2023/12/30 16:41:13;;;;;;;4.78;2.60;;;;;;;11.03;71.28;99976.66;10325248;28;20050;-62
2023/12/30 16:46:18;;;;;;;5.38;2.20;;;;;;;10.93;71.61;99966.81;10337207;28;20052;-61
2023/12/30 16:51:20;;;;;;;5.68;2.10;;;;;;;10.92;71.61;99975.75;10339834;28;20105;-61
2023/12/30 16:56:22;;;;;;;6.70;2.20;;;;;;;10.90;71.20;99974.19;10346722;28;20049;-62
2023/12/30 17:01:23;;;;;;;6.45;2.53;;;;;;;10.70;71.25;99955.44;10332070;28;20141;-62
2023/12/30 17:06:25;;;;;;;5.38;2.30;;;;;;;10.86;71.10;99965.63;10329807;28;20054;-60
2023/12/30 17:11:27;;;;;;;5.57;1.65;;;;;;;10.81;70.23;99957.22;10327197;28;20549;-63
2023/12/30 17:16:28;;;;;;;3.08;1.48;;;;;;;10.78;70.76;99942.34;10327546;28;20503;-63
2023/12/30 17:21:30;;;;;;;3.13;1.88;;;;;;;10.81;69.88;99941.25;10357491;28;20048;-62
2023/12/30 17:26:33;;;;;;;2.90;1.35;;;;;;;10.75;69.44;99939.94;10330712;28;20074;-62
2023/12/30 17:31:35;;;;;;;5.82;1.52;;;;;;;10.75;69.76;99941.78;10349097;28;20080;-61
2023/12/30 17:36:36;;;;;;;5.00;1.85;;;;;;;10.70;69.74;99936.00;10331768;28;21001;-62
2023/12/30 17:41:38;;;;;;;5.40;1.90;;;;;;;10.64;69.46;99949.81;10354984;28;20065;-62
2023/12/30 17:46:39;;;;;;;4.55;2.00;;;;;;;10.54;69.62;99939.97;10341874;28;20053;-60
2023/12/30 17:51:42;;;;;;;5.43;2.10;;;;;;;10.52;70.37;99923.28;10329773;28;20482;-62
2023/12/30 17:56:43;;;;;;;4.55;3.10;;;;;;;10.46;69.52;99934.44;10325310;28;20479;-62
2023/12/30 18:01:44;;;;;;;5.65;2.63;;;;;;;10.47;69.79;99938.81;10326761;28;20080;-61
2023/12/30 18:06:46;;;;;;;5.07;2.33;;;;;;;10.38;69.20;99934.28;10337644;28;20610;-59
2023/12/30 18:11:49;;;;;;;7.88;4.68;;;;;;;10.29;69.40;99935.84;10354361;28;20170;-60
2023/12/30 18:16:52;;;;;;;8.63;3.47;;;;;;;10.19;69.18;99935.81;10330057;28;20463;-63
2023/12/30 18:21:58;;;;;;;7.18;3.85;;;;;;;10.19;69.36;99940.25;10324385;28;20050;-62
2023/12/30 18:27:00;;;;;;;11.75;5.63;;;;;;;10.13;69.38;99941.59;10339295;28;20061;-61
2023/12/30 18:32:01;;;;;;;31.48;21.75;;;;;;;9.96;70.25;99947.50;10317003;28;20049;-62
2023/12/30 18:37:07;;;;;;;11.52;7.22;;;;;;;10.05;70.37;99944.06;10334518;28;20069;-63
2023/12/30 18:42:09;;;;;;;9.98;7.32;;;;;;;10.03;70.29;99943.38;10322851;28;20054;-63
2023/12/30 18:47:10;;;;;;;42.50;36.92;;;;;;;10.07;69.38;99942.13;10327066;28;20913;-63
2023/12/30 18:52:14;;;;;;;10.88;9.15;;;;;;;10.19;70.28;99946.44;10316402;28;20065;-61
2023/12/30 18:57:16;;;;;;;6.68;4.40;;;;;;;10.18;69.68;99935.94;10339573;28;20495;-61
2023/12/30 19:02:18;;;;;;;5.32;2.95;;;;;;;10.16;69.58;99938.69;10325413;28;20968;-62
2023/12/30 19:07:19;;;;;;;9.45;6.35;;;;;;;10.26;69.62;99942.28;10321979;28;20061;-62
2023/12/30 19:12:21;;;;;;;4.35;3.03;;;;;;;10.25;68.58;99940.59;10340420;28;20577;-62
2023/12/30 19:17:29;;;;;;;8.43;5.22;;;;;;;10.32;69.27;99929.44;10313986;28;20497;-61
2023/12/30 19:22:30;;;;;;;9.90;6.25;;;;;;;10.23;68.29;99915.94;10323124;28;20197;-61
2023/12/30 19:27:32;;;;;;;6.70;3.60;;;;;;;10.23;68.71;99918.59;10319344;28;20162;-61
2023/12/30 19:32:34;;;;;;;8.73;4.40;;;;;;;10.25;68.92;99919.31;10344313;28;20049;-61
2023/12/30 19:37:36;;;;;;;3.53;2.45;;;;;;;10.20;68.42;99905.53;10324524;28;20077;-62
2023/12/30 19:42:38;;;;;;;4.43;3.10;;;;;;;10.19;68.81;99903.00;10318744;28;20058;-61
2023/12/30 19:47:40;;;;;;;5.70;3.63;;;;;;;10.22;69.00;99897.44;10321210;28;20081;-59
2023/12/30 19:52:44;;;;;;;7.13;3.93;;;;;;;10.31;69.87;99901.97;10317721;28;20054;-57
2023/12/30 19:57:46;;;;;;;6.63;3.10;;;;;;;10.26;68.85;99894.38;10320638;28;20131;-59
2023/12/30 20:02:51;;;;;;;9.55;6.70;;;;;;;10.30;69.19;99887.00;10334769;28;20496;-62
2023/12/30 20:07:52;;;;;;;6.07;5.22;;;;;;;10.37;70.24;99890.00;10317625;28;20597;-60
2023/12/30 20:12:55;;;;;;;3.83;2.90;;;;;;;10.43;69.20;99884.16;10316408;28;20053;-61
2023/12/30 20:17:57;;;;;;;15.43;13.85;;;;;;;10.39;69.00;99874.78;10327542;28;21223;-61
2023/12/30 20:22:59;;;;;;;13.93;12.07;;;;;;;10.47;69.80;99868.78;10328170;28;20053;-61
2023/12/30 20:28:02;;;;;;;40.78;35.08;;;;;;;10.46;69.33;99867.91;10356632;28;20878;-62
2023/12/30 20:33:04;;;;;;;7.32;6.15;;;;;;;10.45;69.98;99842.31;10330934;28;20053;-60
2023/12/30 20:38:06;;;;;;;4.45;2.80;;;;;;;10.45;69.31;99844.97;10338734;28;20050;-62
2023/12/30 20:43:08;;;;;;;6.38;3.70;;;;;;;10.47;68.83;99834.19;10332235;28;20049;-62
2023/12/30 20:48:09;;;;;;;5.45;3.60;;;;;;;10.51;69.68;99827.59;10331615;28;20065;-59
2023/12/30 20:53:11;;;;;;;6.38;5.22;;;;;;;10.45;69.63;99823.69;10323435;28;20049;-59
2023/12/30 20:58:14;;;;;;;5.78;5.00;;;;;;;10.45;70.04;99799.72;10317860;28;20060;-62
2023/12/30 21:03:16;;;;;;;6.93;4.47;;;;;;;10.51;69.55;99823.16;10355129;28;20675;-63
2023/12/30 21:08:17;;;;;;;8.02;5.50;;;;;;;10.46;69.15;99824.50;10342291;28;21681;-62
2023/12/30 21:13:20;;;;;;;6.80;4.88;;;;;;;10.47;69.78;99821.72;10345594;28;20152;-61
2023/12/30 21:18:22;;;;;;;8.18;4.32;;;;;;;10.48;70.28;99812.78;10326491;28;20050;-61
2023/12/30 21:23:23;;;;;;;8.77;5.55;;;;;;;10.54;69.98;99812.22;10360924;28;20078;-62
2023/12/30 21:28:30;;;;;;;8.98;5.80;;;;;;;10.48;69.56;99798.59;10327719;28;20053;-62
2023/12/30 21:33:32;;;;;;;9.00;6.07;;;;;;;10.47;69.69;99795.09;10350478;28;20515;-60
2023/12/30 21:38:35;;;;;;;8.90;6.93;;;;;;;10.48;70.43;99794.13;10338135;28;20076;-62
2023/12/30 21:43:39;;;;;;;6.95;4.95;;;;;;;10.41;70.44;99785.84;10325739;28;20817;-61
2023/12/30 21:48:41;;;;;;;9.55;6.07;;;;;;;10.30;70.09;99780.59;10345761;28;20068;-60
2023/12/30 21:53:43;;;;;;;8.88;6.15;;;;;;;10.17;70.43;99767.50;10331620;28;20042;-62
2023/12/30 21:58:45;;;;;;;7.65;5.32;;;;;;;10.21;71.55;99762.78;10340268;28;20056;-60
2023/12/30 22:03:47;;;;;;;8.25;5.20;;;;;;;10.17;71.45;99751.53;10315368;28;20061;-62
2023/12/30 22:08:48;;;;;;;8.13;5.50;;;;;;;10.18;71.30;99750.56;10339495;28;20157;-62
2023/12/30 22:13:51;;;;;;;10.65;5.82;;;;;;;10.15;71.30;99753.50;10326724;28;20061;-62
2023/12/30 22:18:52;;;;;;;7.10;4.82;;;;;;;10.14;71.67;99735.03;10326925;28;20498;-62
2023/12/30 22:23:54;;;;;;;6.53;4.85;;;;;;;10.19;71.47;99746.94;10327307;28;20058;-62
2023/12/30 22:28:56;;;;;;;6.15;4.85;;;;;;;10.08;71.94;99725.75;10321969;28;20060;-62
2023/12/30 22:33:57;;;;;;;7.78;4.97;;;;;;;10.08;72.20;99731.06;10324421;28;20971;-61
2023/12/30 22:38:59;;;;;;;6.43;4.35;;;;;;;10.26;73.20;99739.25;10319950;28;20052;-58
2023/12/30 22:44:00;;;;;;;5.90;4.18;;;;;;;10.33;72.33;99744.88;10346375;28;20096;-60
2023/12/30 22:49:02;;;;;;;6.20;4.40;;;;;;;10.16;71.96;99723.25;10342211;28;20591;-62
2023/12/30 22:54:05;;;;;;;5.97;4.38;;;;;;;10.25;72.75;99711.84;10325947;28;20049;-62
2023/12/30 22:59:07;;;;;;;5.10;4.03;;;;;;;10.10;72.20;99689.22;10326912;28;20053;-62
2023/12/30 23:04:09;;;;;;;4.50;4.05;;;;;;;10.26;72.53;99708.19;10325598;28;20057;-62
2023/12/30 23:09:11;;;;;;;4.93;3.88;;;;;;;10.16;72.78;99709.94;10324283;28;20542;-60
2023/12/30 23:14:13;;;;;;;7.28;4.00;;;;;;;10.20;72.89;99691.94;10348150;28;20630;-61
2023/12/30 23:19:16;;;;;;;8.60;3.67;;;;;;;10.19;72.68;99690.22;10325461;28;20119;-62
2023/12/30 23:24:18;;;;;;;5.78;3.20;;;;;;;10.16;73.19;99680.69;10323042;28;20592;-61
2023/12/30 23:29:20;;;;;;;6.72;3.22;;;;;;;10.13;73.01;99669.50;10323259;28;20098;-62
2023/12/30 23:34:21;;;;;;;4.07;3.13;;;;;;;9.99;73.69;99666.22;10328110;28;20081;-60